Swansea, South Carolina
Current Conditions -  °F | °C
As of 11:56 PM on Monday 20 Oct 2014 (Local Time) from KCAE Reporting Station
Scattered Clouds Scattered Clouds  
Wind Chill: 54°   Ceiling: Unl
Heat Index: 54°   Visibility: 10mi
Dew Point: 50°   Wind: 3mph
Humidity: 86%   Direction: 270°W
Pressure: 29.99"   Gusts: NA
Location:  33.74°N, 81.1°W
Report Text: KCAE 210356Z 27003KT 10SM SCT200 12/10 A2999 RMK AO2 SLP155 T01220100
Loading
Personal Weather Stations






























Interactive Weather Map
Tropical Storm Tracking
New forecast layout! Learn more

10-Day Weather Forecast

Advertisements
Track Severe Weather on mobile